Moosonee Airport
CYMO : now visible

Airfield :











YOU CAN JOIN US ON...

 
LOGIN :

Register | Disclaimer

   EN    FR    IT 

 









Legend :    VFR   Marginal VFR   IFR   Intensive IFR   Very Intensive IFR
Visi :
Ceiling :
>= 8 km
>= 3000ft
5 to 8 km
1000 to 3000 ft
1500m to 5 km
500 to 1000 ft
800 to 1500m
200 to 500 ft
< 800m
< 200 ft
Symbols :   Thunderstorms  Fog  Heavy snow  Heavy precipitations  Wind > 20 kt







- Airport Elevation : 30 ft
- IATA code : YMO


CYMO - Moosonee

CURRENT METAR :
  • 192200Z AUTO 05010G16KT 9SM CLR 06/01 A3007 RMK SLP186

EXPIRED METARs :
  • 192100Z AUTO 07010G17KT 9SM CLR 07/02 A3009 RMK SLP193
  • 192000Z AUTO 05012G18KT 9SM CLR 07/01 A3011 RMK SLP199

TAF TAF CYMO
Valid from the 19 at 18:00 until the 20 at 06:00 UTC


191738Z 1918/2006 04012KT P6SM SCT030 BKN080
FM192000 07010KT P6SM FEW030 SCT080
BECMG 2001/2003 02007KT
FM200500 35008KT P6SM FEW003
PROB30 2005/2006 6SM BR BKN003 RMK FCST BASED ON AUTO OBS. NXT FCST BY 200000Z
CZYZ FIR / North America



MET'MAP, your aeronautical weather chart ! - Copyright ORBIFLY December 2007 - Disclaimer

ORBIFLY MET'MAP TEAM :

Programming & Development : Alexandra Zaïnal
Concept & Development : Baudouin d'Aumeries
Co-Development & Prog : Marc-Olivier Méhu
Technical & hardware support : Manuel Goepfert

Contact : metmap@orbifly.com




SOURCES & CREDITS :

   NOAA       Earth
Advisory